Time;durP1;ratioP1;P1;durP2;ratioP2;P2;SDS_P1;SDS_P2;PMS_P1;PMS_P2;Temp;Humidity;BMP_temperature;BMP_pressure;BME280_temperature;BME280_humidity;BME280_pressure;Samples;Min_cycle;Max_cycle;Signal;HPM_P1;HPM_P2
2021/12/02 00:01:11;;;;;;;10.87;7.20;;;15.30;94.10;;;;;;5190218;28;20068;-33
2021/12/02 00:03:43;;;;;;;9.63;6.77;;;15.30;94.20;;;;;;5207803;28;20045;-30
2021/12/02 00:06:16;;;;;;;9.60;6.43;;;15.30;94.20;;;;;;5172331;28;20518;-31
2021/12/02 00:08:48;;;;;;;9.25;6.63;;;15.30;94.20;;;;;;5207725;28;20072;-33
2021/12/02 00:11:19;;;;;;;9.27;6.70;;;15.30;94.20;;;;;;5207598;28;20045;-31
2021/12/02 00:16:33;;;;;;;9.63;6.50;;;15.20;94.30;;;;;;5207455;28;20045;-30
2021/12/02 00:22:00;;;;;;;8.87;5.83;;;15.20;94.30;;;;;;5193019;28;20120;-31
2021/12/02 00:24:34;;;;;;;10.07;7.50;;;15.20;94.40;;;;;;5190976;28;20471;-31
2021/12/02 00:27:06;;;;;;;9.17;6.53;;;15.20;94.40;;;;;;5172702;28;20057;-33
2021/12/02 00:29:39;;;;;;;11.15;7.43;;;15.20;94.40;;;;;;5207083;28;20045;-33
2021/12/02 00:32:10;;;;;;;8.97;5.97;;;15.10;94.50;;;;;;5207176;28;20441;-31
2021/12/02 00:34:45;;;;;;;11.00;7.67;;;15.10;94.50;;;;;;5188750;28;20041;-31
2021/12/02 00:37:16;;;;;;;8.00;5.73;;;15.10;94.60;;;;;;5206622;28;20052;-31
2021/12/02 00:39:47;;;;;;;9.30;6.13;;;15.10;94.60;;;;;;5190010;28;20041;-32
2021/12/02 00:42:18;;;;;;;9.27;5.80;;;15.00;94.70;;;;;;5206934;28;20053;-31
2021/12/02 00:44:50;;;;;;;8.40;5.63;;;15.00;94.70;;;;;;5190150;28;20049;-31
2021/12/02 00:47:20;;;;;;;8.83;5.23;;;15.00;94.80;;;;;;5173216;28;20501;-34
2021/12/02 00:49:51;;;;;;;7.20;4.63;;;15.00;94.80;;;;;;5190307;28;20124;-34
2021/12/02 00:52:22;;;;;;;7.47;5.23;;;15.00;94.80;;;;;;5211113;28;20136;-30
2021/12/02 00:54:54;;;;;;;6.30;4.43;;;14.90;94.90;;;;;;5193395;28;20469;-33
2021/12/02 00:57:25;;;;;;;6.23;4.13;;;14.90;94.80;;;;;;5211456;28;20045;-34
2021/12/02 00:59:56;;;;;;;5.60;3.90;;;14.90;94.90;;;;;;5193693;28;20045;-31
2021/12/02 01:02:27;;;;;;;5.27;3.70;;;14.90;94.90;;;;;;5193384;28;20045;-31
2021/12/02 01:04:58;;;;;;;6.37;4.20;;;14.90;94.90;;;;;;5177224;28;20471;-33
2021/12/02 01:07:29;;;;;;;6.43;3.50;;;14.90;95.00;;;;;;5211170;28;20133;-33
2021/12/02 01:10:00;;;;;;;5.57;3.37;;;14.90;94.90;;;;;;5211749;28;20087;-34
2021/12/02 01:12:31;;;;;;;4.93;3.30;;;14.90;94.90;;;;;;5211239;28;20041;-34
2021/12/02 01:15:04;;;;;;;6.30;3.53;;;14.80;94.90;;;;;;5210945;28;20037;-33
2021/12/02 01:17:35;;;;;;;5.47;2.80;;;14.80;95.00;;;;;;5193423;28;20491;-34
2021/12/02 01:20:06;;;;;;;6.07;3.20;;;14.80;95.00;;;;;;5193321;28;20506;-32
2021/12/02 01:22:38;;;;;;;4.47;2.97;;;14.80;94.90;;;;;;5210805;28;20080;-33
2021/12/02 01:25:09;;;;;;;5.50;3.33;;;14.80;94.90;;;;;;5193146;28;20095;-34
2021/12/02 01:27:39;;;;;;;4.33;2.93;;;14.80;94.90;;;;;;5177525;28;20419;-31
2021/12/02 01:30:11;;;;;;;4.47;2.70;;;14.80;95.20;;;;;;5192963;28;20065;-31
2021/12/02 01:32:41;;;;;;;4.73;2.83;;;14.80;94.80;;;;;;5176558;28;20080;-31
2021/12/02 01:35:12;;;;;;;2.70;2.17;;;14.70;94.80;;;;;;5177290;28;20041;-31
2021/12/02 01:37:45;;;;;;;4.53;2.70;;;14.70;94.70;;;;;;5192844;28;20059;-33
2021/12/02 01:40:17;;;;;;;4.80;2.35;;;14.70;94.80;;;;;;5210387;28;20406;-33
2021/12/02 01:42:51;;;;;;;4.20;2.37;;;14.70;94.90;;;;;;5188570;28;20085;-34
2021/12/02 01:45:24;;;;;;;4.23;2.47;;;14.70;94.80;;;;;;5171733;28;20042;-31
2021/12/02 01:47:56;;;;;;;3.35;1.98;;;14.70;94.80;;;;;;5190193;28;20044;-31
2021/12/02 01:50:27;;;;;;;3.97;2.40;;;14.70;94.80;;;;;;5189979;28;20077;-30
2021/12/02 01:52:59;;;;;;;5.87;2.20;;;14.70;94.90;;;;;;5190071;28;20069;-34
2021/12/02 01:55:30;;;;;;;3.58;2.33;;;14.60;94.90;;;;;;5172420;28;20508;-31
2021/12/02 01:58:04;;;;;;;3.20;2.00;;;14.60;94.80;;;;;;5187052;28;20049;-31
2021/12/02 02:00:41;;;;;;;4.20;1.95;;;14.70;94.80;;;;;;5172117;28;20497;-31
2021/12/02 02:03:14;;;;;;;2.43;1.40;;;14.70;94.70;;;;;;5189972;28;20187;-34
2021/12/02 02:05:45;;;;;;;2.75;1.50;;;14.60;94.50;;;;;;5188547;28;20045;-32
2021/12/02 02:08:17;;;;;;;2.53;1.30;;;14.60;94.20;;;;;;5172085;28;20072;-33
2021/12/02 02:10:49;;;;;;;2.90;1.55;;;14.60;94.10;;;;;;5187948;28;20411;-32
2021/12/02 02:13:21;;;;;;;5.70;1.67;;;14.60;93.90;;;;;;5189512;28;20196;-32
2021/12/02 02:15:53;;;;;;;3.10;1.93;;;14.50;93.90;;;;;;5189494;28;20089;-30
2021/12/02 02:18:24;;;;;;;1.97;1.10;;;14.50;94.10;;;;;;5188142;28;20050;-33
2021/12/02 02:21:00;;;;;;;2.43;1.27;;;14.40;93.70;;;;;;5188156;28;20038;-33
2021/12/02 02:23:33;;;;;;;6.23;2.17;;;14.30;93.80;;;;;;5189345;28;20074;-31
2021/12/02 02:26:04;;;;;;;2.40;1.20;;;14.30;93.40;;;;;;5189354;28;20483;-31
2021/12/02 02:28:35;;;;;;;9.93;4.67;;;14.20;93.00;;;;;;5189187;28;20069;-33
2021/12/02 02:31:07;;;;;;;8.40;4.33;;;14.20;93.00;;;;;;5187748;28;20077;-33
2021/12/02 02:33:38;;;;;;;10.30;4.43;;;14.20;93.30;;;;;;5189170;28;20072;-31
2021/12/02 02:36:10;;;;;;;9.43;4.77;;;14.30;93.20;;;;;;5189043;28;20049;-33
2021/12/02 02:38:40;;;;;;;6.43;3.10;;;14.30;93.20;;;;;;5188112;28;20103;-32
2021/12/02 02:41:18;;;;;;;8.40;4.07;;;14.30;93.10;;;;;;5186934;28;20504;-31
2021/12/02 02:43:50;;;;;;;5.10;1.60;;;14.40;93.00;;;;;;5205129;28;20410;-31
2021/12/02 02:46:22;;;;;;;7.20;2.90;;;14.40;92.70;;;;;;5192259;28;20045;-34
2021/12/02 02:48:53;;;;;;;3.88;1.55;;;14.40;92.50;;;;;;5209337;28;20052;-31
2021/12/02 02:51:25;;;;;;;5.50;2.43;;;14.30;91.80;;;;;;5175409;28;20045;-33
2021/12/02 02:53:57;;;;;;;4.57;2.03;;;14.30;90.90;;;;;;5175667;28;20117;-30
2021/12/02 02:56:30;;;;;;;6.53;3.07;;;14.30;90.20;;;;;;5191814;28;20087;-31
2021/12/02 03:01:48;;;;;;;2.40;0.97;;;14.30;89.60;;;;;;5207937;28;20148;-33
2021/12/02 03:06:58;;;;;;;5.07;2.13;;;14.30;88.10;;;;;;5190968;28;20041;-32
2021/12/02 03:17:17;;;;;;;3.53;1.77;;;14.20;86.70;;;;;;5175714;28;20041;-34
2021/12/02 03:19:48;;;;;;;3.60;1.50;;;14.20;86.80;;;;;;5174857;28;20037;-31
2021/12/02 03:22:22;;;;;;;1.87;0.90;;;14.10;87.40;;;;;;5208661;28;20120;-33
2021/12/02 03:25:08;;;;;;;2.77;1.10;;;14.20;87.40;;;;;;5208508;28;20381;-31
2021/12/02 03:27:39;;;;;;;3.77;1.13;;;14.20;87.40;;;;;;5190621;28;20053;-32
2021/12/02 03:30:10;;;;;;;2.40;1.20;;;14.20;87.20;;;;;;5208453;28;20124;-33
2021/12/02 03:32:41;;;;;;;2.20;0.80;;;14.20;87.70;;;;;;5191198;28;20380;-31
2021/12/02 03:35:12;;;;;;;2.93;1.50;;;14.20;88.50;;;;;;5208438;28;20095;-34
2021/12/02 03:37:43;;;;;;;1.80;0.80;;;14.20;88.70;;;;;;5208525;28;20049;-32
2021/12/02 03:40:14;;;;;;;1.97;0.93;;;14.30;88.90;;;;;;5174343;28;20052;-30
2021/12/02 03:42:50;;;;;;;3.00;1.07;;;14.30;89.20;;;;;;5173938;28;20128;-33
2021/12/02 03:45:24;;;;;;;3.37;1.80;;;14.30;89.10;;;;;;5174564;28;20120;-33
2021/12/02 03:47:55;;;;;;;2.77;1.10;;;14.20;89.30;;;;;;5207875;28;20114;-33
2021/12/02 03:50:26;;;;;;;1.90;0.87;;;14.20;89.10;;;;;;5208150;28;20120;-34
2021/12/02 03:52:57;;;;;;;3.17;1.23;;;14.20;88.50;;;;;;5207883;28;20132;-31
2021/12/02 03:55:28;;;;;;;1.37;0.63;;;14.10;88.10;;;;;;5190401;28;20045;-33
2021/12/02 03:57:59;;;;;;;2.43;0.90;;;14.10;87.60;;;;;;5207191;28;20457;-32
2021/12/02 04:00:30;;;;;;;3.03;1.30;;;14.10;87.50;;;;;;5189911;28;20041;-33
2021/12/02 04:03:01;;;;;;;3.37;1.77;;;14.10;86.90;;;;;;5207878;28;20126;-33
2021/12/02 04:05:32;;;;;;;2.93;0.80;;;14.10;86.50;;;;;;5207526;28;20122;-34
2021/12/02 04:08:03;;;;;;;2.70;1.60;;;14.10;85.80;;;;;;5207582;28;20045;-31
2021/12/02 04:10:34;;;;;;;4.63;2.27;;;14.20;85.80;;;;;;5207665;28;20049;-31
2021/12/02 04:13:26;;;;;;;5.00;2.80;;;14.20;85.10;;;;;;5189911;28;20116;-32
2021/12/02 04:16:03;;;;;;;3.13;1.10;;;14.20;84.30;;;;;;5193488;28;20095;-31
2021/12/02 04:18:35;;;;;;;2.13;1.07;;;14.20;84.70;;;;;;5191521;28;20463;-32
2021/12/02 04:21:05;;;;;;;2.70;0.80;;;14.20;85.40;;;;;;5207624;28;20117;-31
2021/12/02 04:23:37;;;;;;;2.23;0.80;;;14.20;85.70;;;;;;5207093;28;20183;-31
2021/12/02 04:26:07;;;;;;;3.13;0.97;;;14.20;86.10;;;;;;5189460;28;20041;-32
2021/12/02 04:28:39;;;;;;;2.30;1.07;;;14.20;86.20;;;;;;5189612;28;20128;-32
2021/12/02 04:31:09;;;;;;;2.57;0.87;;;14.10;86.40;;;;;;5207383;28;20480;-31
2021/12/02 04:33:41;;;;;;;5.03;1.23;;;14.20;86.80;;;;;;5207323;28;20136;-31
2021/12/02 04:36:11;;;;;;;2.77;1.17;;;14.10;86.40;;;;;;5189379;28;20124;-31
2021/12/02 04:38:42;;;;;;;3.17;1.20;;;14.10;86.50;;;;;;5189791;28;20120;-32
2021/12/02 04:41:16;;;;;;;2.77;0.90;;;14.20;86.60;;;;;;5189233;28;20041;-31
2021/12/02 04:43:47;;;;;;;1.63;0.80;;;14.10;86.00;;;;;;5189431;28;20059;-31
2021/12/02 04:46:18;;;;;;;9.53;5.13;;;14.10;85.50;;;;;;5207178;28;20124;-32
2021/12/02 04:48:49;;;;;;;3.40;1.60;;;14.00;84.70;;;;;;5207361;28;20080;-32
2021/12/02 04:51:20;;;;;;;4.50;1.33;;;14.00;84.70;;;;;;5189269;28;20037;-31
2021/12/02 04:53:51;;;;;;;2.00;1.20;;;14.00;84.70;;;;;;5207388;28;20072;-31
2021/12/02 04:56:22;;;;;;;2.33;1.30;;;13.90;85.00;;;;;;5189578;28;20084;-32
2021/12/02 04:58:53;;;;;;;3.23;1.90;;;13.90;84.60;;;;;;5173653;28;20442;-31
2021/12/02 05:01:24;;;;;;;3.20;1.37;;;14.00;84.70;;;;;;5189067;28;20037;-32
2021/12/02 05:03:55;;;;;;;2.63;1.70;;;14.00;85.10;;;;;;5205977;28;20073;-32
2021/12/02 05:06:26;;;;;;;2.50;1.13;;;14.10;84.80;;;;;;5206987;28;20077;-32
2021/12/02 05:08:58;;;;;;;3.33;1.60;;;14.10;84.90;;;;;;5207360;28;20049;-32
2021/12/02 05:11:28;;;;;;;2.30;1.20;;;14.10;85.30;;;;;;5189422;28;20647;-33
2021/12/02 05:14:00;;;;;;;3.23;1.30;;;14.10;85.80;;;;;;5173271;28;20045;-33
2021/12/02 05:16:31;;;;;;;2.40;1.20;;;14.10;86.20;;;;;;5189399;28;20048;-32
2021/12/02 05:19:02;;;;;;;2.53;1.40;;;14.20;86.10;;;;;;5206608;28;20594;-31
2021/12/02 05:21:33;;;;;;;3.57;1.50;;;14.20;86.40;;;;;;5190089;28;20132;-31
2021/12/02 05:24:05;;;;;;;2.83;1.10;;;14.10;86.10;;;;;;5207030;28;20045;-32
2021/12/02 05:26:36;;;;;;;4.27;1.50;;;14.10;86.20;;;;;;5189185;28;20050;-31
2021/12/02 05:29:07;;;;;;;2.83;1.47;;;14.10;86.40;;;;;;5189868;28;20129;-33
2021/12/02 05:31:39;;;;;;;3.50;1.37;;;14.10;86.40;;;;;;5206588;28;20132;-31
2021/12/02 05:34:10;;;;;;;2.33;1.00;;;14.20;86.10;;;;;;5206714;28;20121;-32
2021/12/02 05:36:41;;;;;;;3.27;1.30;;;14.00;86.20;;;;;;5208700;28;20120;-31
2021/12/02 05:39:12;;;;;;;1.23;0.80;;;14.00;85.80;;;;;;5210393;28;20116;-32
2021/12/02 05:41:43;;;;;;;2.93;1.00;;;14.00;86.30;;;;;;5209244;28;20140;-31
2021/12/02 05:44:14;;;;;;;2.93;1.30;;;14.00;85.70;;;;;;5210148;28;20128;-31
2021/12/02 05:46:45;;;;;;;1.20;1.00;;;14.10;85.60;;;;;;5192676;28;20050;-34
2021/12/02 05:49:16;;;;;;;2.13;1.03;;;14.10;85.20;;;;;;5192738;28;20041;-30
2021/12/02 05:51:47;;;;;;;7.67;4.00;;;14.00;84.30;;;;;;5192714;28;20045;-34
2021/12/02 05:54:18;;;;;;;3.40;1.90;;;13.90;83.60;;;;;;5191099;28;20102;-31
2021/12/02 05:56:49;;;;;;;2.33;1.40;;;14.00;83.70;;;;;;5176049;28;20049;-31
2021/12/02 05:59:20;;;;;;;3.20;1.03;;;14.10;84.20;;;;;;5210117;28;20076;-31
2021/12/02 06:01:51;;;;;;;4.17;1.90;;;14.00;83.00;;;;;;5192444;28;20479;-33
2021/12/02 06:04:23;;;;;;;14.30;6.37;;;14.00;83.00;;;;;;5192577;28;20037;-30
2021/12/02 06:06:54;;;;;;;3.07;1.20;;;14.00;83.40;;;;;;5209934;28;20427;-32
2021/12/02 06:09:25;;;;;;;5.77;1.87;;;13.80;83.90;;;;;;5187474;28;20121;-32
2021/12/02 06:11:56;;;;;;;3.50;1.57;;;13.60;83.70;;;;;;5189252;28;20070;-29
2021/12/02 06:14:27;;;;;;;4.00;2.47;;;13.60;83.20;;;;;;5172017;28;20050;-29
2021/12/02 06:16:57;;;;;;;5.63;2.67;;;13.70;82.70;;;;;;5189115;28;20134;-29
2021/12/02 06:19:28;;;;;;;6.33;3.57;;;13.80;82.70;;;;;;5189364;28;20430;-32
2021/12/02 06:21:59;;;;;;;6.43;3.07;;;13.90;81.70;;;;;;5189451;28;20056;-32
2021/12/02 06:24:41;;;;;;;4.67;2.50;;;14.10;80.90;;;;;;5188442;28;20092;-33
2021/12/02 06:27:12;;;;;;;3.93;2.20;;;14.30;80.40;;;;;;5189288;28;20598;-33
2021/12/02 06:29:43;;;;;;;8.33;4.07;;;14.50;80.60;;;;;;5189244;28;20495;-34
2021/12/02 06:32:14;;;;;;;4.03;1.60;;;14.60;80.50;;;;;;5189847;28;20128;-34
2021/12/02 06:34:45;;;;;;;3.07;1.60;;;14.70;80.00;;;;;;5189143;28;20062;-32
2021/12/02 06:37:16;;;;;;;3.73;1.77;;;14.70;80.50;;;;;;5189141;28;20471;-33
2021/12/02 06:39:47;;;;;;;4.23;1.90;;;14.70;80.50;;;;;;5188966;28;20056;-32
2021/12/02 06:42:18;;;;;;;7.27;4.43;;;14.80;81.30;;;;;;5188333;28;20042;-31
2021/12/02 06:44:59;;;;;;;3.87;1.47;;;14.40;81.40;;;;;;5189432;28;20061;-31
2021/12/02 06:47:33;;;;;;;2.50;1.63;;;12.90;85.00;;;;;;5188045;28;20049;-31
2021/12/02 06:50:08;;;;;;;5.80;2.20;;;12.20;86.90;;;;;;5187392;28;20049;-31
2021/12/02 06:52:39;;;;;;;5.50;2.90;;;11.80;87.50;;;;;;5188715;28;20077;-31
2021/12/02 06:55:10;;;;;;;6.13;3.70;;;11.60;88.90;;;;;;5188115;28;20521;-31
2021/12/02 06:57:41;;;;;;;5.37;2.40;;;11.50;89.60;;;;;;5188742;28;20120;-31
2021/12/02 07:00:14;;;;;;;3.27;1.80;;;11.40;89.10;;;;;;5188892;28;20048;-31
2021/12/02 07:02:45;;;;;;;5.38;3.05;;;11.40;89.20;;;;;;5187305;28;20049;-30
2021/12/02 07:05:17;;;;;;;6.80;4.87;;;11.30;87.30;;;;;;5188450;28;20054;-31
2021/12/02 07:07:48;;;;;;;3.37;2.23;;;11.20;87.00;;;;;;5187388;28;20046;-30
2021/12/02 07:10:22;;;;;;;4.43;1.80;;;11.20;87.20;;;;;;5187873;28;20069;-30
2021/12/02 07:12:57;;;;;;;6.37;3.87;;;11.20;87.40;;;;;;5187184;28;20049;-30
2021/12/02 07:15:41;;;;;;;2.83;1.80;;;11.10;86.40;;;;;;5187753;28;20049;-30
2021/12/02 07:18:13;;;;;;;4.83;2.20;;;11.10;86.70;;;;;;5188310;28;20046;-31
2021/12/02 07:20:47;;;;;;;4.60;2.20;;;11.00;86.60;;;;;;5187305;28;20517;-31
2021/12/02 07:23:19;;;;;;;3.80;1.93;;;11.00;86.40;;;;;;5188283;28;20052;-31
2021/12/02 07:25:50;;;;;;;6.03;3.07;;;10.90;85.70;;;;;;5187870;28;20117;-29
2021/12/02 07:28:21;;;;;;;3.20;1.80;;;10.90;86.40;;;;;;5187829;28;20050;-31
2021/12/02 07:30:53;;;;;;;8.97;6.73;;;10.90;86.80;;;;;;5188558;28;20072;-30
2021/12/02 07:33:28;;;;;;;17.90;9.33;;;10.90;87.10;;;;;;5187848;28;20073;-30
2021/12/02 07:35:59;;;;;;;9.37;5.93;;;10.80;87.00;;;;;;5185443;28;20046;-30
2021/12/02 07:38:30;;;;;;;4.20;2.40;;;10.90;86.90;;;;;;5185707;28;20512;-30
2021/12/02 07:41:04;;;;;;;16.90;9.43;;;10.80;86.20;;;;;;5168607;28;20054;-30
2021/12/02 07:43:36;;;;;;;7.53;3.40;;;10.80;85.60;;;;;;5185090;28;20061;-30
2021/12/02 07:46:10;;;;;;;2.40;1.67;;;10.80;84.90;;;;;;5169578;28;20062;-30
2021/12/02 07:48:41;;;;;;;3.07;1.60;;;10.80;85.00;;;;;;5185560;28;20128;-31
2021/12/02 07:51:15;;;;;;;5.93;3.20;;;10.70;84.10;;;;;;5185380;28;20092;-30
2021/12/02 07:53:47;;;;;;;6.53;3.80;;;10.70;84.80;;;;;;5185344;28;20480;-31
2021/12/02 07:56:19;;;;;;;3.20;1.20;;;10.70;84.30;;;;;;5185402;28;20136;-31
2021/12/02 07:58:50;;;;;;;3.67;1.40;;;10.70;84.20;;;;;;5169059;28;20162;-31
2021/12/02 08:01:21;;;;;;;3.37;1.60;;;10.60;84.40;;;;;;5168896;28;20058;-30
2021/12/02 08:03:52;;;;;;;2.93;1.70;;;10.60;85.00;;;;;;5185349;28;20049;-31
2021/12/02 08:06:37;;;;;;;3.13;1.50;;;10.70;85.00;;;;;;5165149;28;20062;-31
2021/12/02 08:09:26;;;;;;;3.57;1.90;;;10.60;84.90;;;;;;5164933;28;20495;-30
2021/12/02 08:12:02;;;;;;;2.67;1.47;;;10.60;84.90;;;;;;5150428;28;20101;-30
2021/12/02 08:14:37;;;;;;;4.73;2.57;;;10.70;86.00;;;;;;5149606;28;20536;-30
2021/12/02 08:17:09;;;;;;;5.97;3.23;;;10.70;85.50;;;;;;5166463;28;20042;-30
2021/12/02 08:19:41;;;;;;;3.60;2.07;;;10.60;85.80;;;;;;5165544;28;20396;-31
2021/12/02 08:22:13;;;;;;;18.13;7.67;;;10.70;86.00;;;;;;5166634;28;20073;-30
2021/12/02 08:24:43;;;;;;;17.50;8.23;;;10.70;87.30;;;;;;5166963;28;20065;-31
2021/12/02 08:27:16;;;;;;;5.83;2.83;;;10.70;85.90;;;;;;5166791;28;20042;-31
2021/12/02 08:30:09;;;;;;;10.13;4.83;;;10.70;87.10;;;;;;5150473;28;20052;-30
2021/12/02 08:32:51;;;;;;;17.17;8.33;;;10.70;86.50;;;;;;5167161;28;20072;-31
2021/12/02 08:35:39;;;;;;;3.27;1.70;;;10.60;85.80;;;;;;5166539;28;20121;-31
2021/12/02 08:38:12;;;;;;;6.23;3.17;;;10.70;87.10;;;;;;5166609;28;20125;-31
2021/12/02 08:40:44;;;;;;;7.65;3.00;;;10.70;87.00;;;;;;5165485;28;20050;-31
2021/12/02 08:43:15;;;;;;;23.40;9.63;;;10.60;87.00;;;;;;5175522;28;20443;-31
2021/12/02 08:45:46;;;;;;;5.17;2.50;;;10.70;87.90;;;;;;5186943;28;20117;-31
2021/12/02 08:48:17;;;;;;;4.17;1.60;;;10.70;87.80;;;;;;5185725;28;20065;-31
2021/12/02 08:50:48;;;;;;;4.37;2.20;;;10.60;87.30;;;;;;5186445;28;20078;-31
2021/12/02 08:53:19;;;;;;;4.80;2.53;;;10.60;87.20;;;;;;5185188;28;20577;-31
2021/12/02 08:55:50;;;;;;;6.80;3.20;;;10.60;87.40;;;;;;5186853;28;20050;-31
2021/12/02 08:58:21;;;;;;;4.97;2.73;;;10.60;86.50;;;;;;5186696;28;20520;-30
2021/12/02 09:00:52;;;;;;;7.70;3.50;;;10.60;88.10;;;;;;5169375;28;20121;-31
2021/12/02 09:03:23;;;;;;;17.10;7.20;;;10.50;86.70;;;;;;5186630;28;20049;-31
2021/12/02 09:05:54;;;;;;;4.00;2.20;;;10.60;86.90;;;;;;5186447;28;20087;-31
2021/12/02 09:08:26;;;;;;;5.27;2.10;;;10.60;87.10;;;;;;5186351;28;20078;-31
2021/12/02 09:10:57;;;;;;;6.00;2.83;;;10.50;88.50;;;;;;5187888;28;20049;-31
2021/12/02 09:13:29;;;;;;;5.77;2.50;;;10.50;88.00;;;;;;5190635;28;20053;-31
2021/12/02 09:15:59;;;;;;;11.30;5.77;;;10.50;87.60;;;;;;5190844;28;20038;-31
2021/12/02 09:18:31;;;;;;;3.80;1.93;;;10.50;88.50;;;;;;5189444;28;20121;-31
2021/12/02 09:21:01;;;;;;;4.57;2.17;;;10.50;87.60;;;;;;5190551;28;20573;-31
2021/12/02 09:23:33;;;;;;;4.00;2.10;;;10.50;86.80;;;;;;5190405;28;20541;-31
2021/12/02 09:26:03;;;;;;;4.43;2.47;;;10.60;86.80;;;;;;5190519;28;20116;-31
2021/12/02 09:28:37;;;;;;;7.17;3.80;;;10.60;87.30;;;;;;5190250;28;20042;-31
2021/12/02 09:31:16;;;;;;;7.43;4.03;;;10.50;86.80;;;;;;5189433;28;20041;-31
2021/12/02 09:33:48;;;;;;;4.57;2.60;;;10.50;87.20;;;;;;5190654;28;20042;-31
2021/12/02 09:36:19;;;;;;;10.13;5.93;;;10.50;87.10;;;;;;5190374;28;20554;-30
2021/12/02 09:38:51;;;;;;;22.00;12.27;;;10.50;86.30;;;;;;5188939;28;20077;-30
2021/12/02 09:41:22;;;;;;;8.43;5.30;;;10.40;86.60;;;;;;5190110;28;20961;-31
2021/12/02 09:43:55;;;;;;;6.17;3.33;;;10.50;86.20;;;;;;5189098;28;20058;-31
2021/12/02 09:46:57;;;;;;;6.53;4.17;;;10.50;87.00;;;;;;5190231;28;20427;-31
2021/12/02 09:50:09;;;;;;;28.60;17.47;;;10.50;85.80;;;;;;5127069;29;20047;-31
2021/12/02 09:53:20;;;;;;;6.37;3.23;;;10.50;86.30;;;;;;5114070;29;20460;-31
2021/12/02 09:56:15;;;;;;;6.63;3.53;;;10.60;84.40;;;;;;5112801;29;20051;-31
2021/12/02 09:58:45;;;;;;;7.18;4.10;;;10.70;85.20;;;;;;5101297;29;20146;-31
2021/12/02 10:01:19;;;;;;;5.03;2.77;;;10.70;86.00;;;;;;5127210;29;20060;-29
2021/12/02 10:03:59;;;;;;;5.50;3.37;;;10.80;86.70;;;;;;5127512;29;20055;-32
2021/12/02 10:06:32;;;;;;;7.30;3.83;;;10.70;85.20;;;;;;5112244;29;20137;-32
2021/12/02 10:09:15;;;;;;;7.82;4.80;;;10.70;84.80;;;;;;5127057;29;20126;-30
2021/12/02 10:11:57;;;;;;;7.87;4.33;;;10.70;86.20;;;;;;5097491;29;20462;-31
2021/12/02 10:15:10;;;;;;;6.30;3.45;;;10.70;85.00;;;;;;5112571;29;20054;-31
2021/12/02 10:17:49;;;;;;;7.10;4.07;;;10.70;85.10;;;;;;5127203;29;20051;-31
2021/12/02 10:20:38;;;;;;;6.17;3.93;;;10.60;85.10;;;;;;5127519;29;20062;-32
2021/12/02 10:23:43;;;;;;;8.03;4.17;;;10.60;85.80;;;;;;5067150;29;20084;-31
2021/12/02 10:26:18;;;;;;;5.73;4.00;;;10.60;85.70;;;;;;5068372;29;20113;-30
2021/12/02 10:28:51;;;;;;;9.93;6.50;;;10.60;87.10;;;;;;5067855;29;20052;-32
2021/12/02 10:31:28;;;;;;;16.13;8.50;;;10.50;86.60;;;;;;5052090;29;20052;-29
2021/12/02 10:34:21;;;;;;;25.70;20.73;;;10.60;86.10;;;;;;5082853;29;20052;-29
2021/12/02 10:37:08;;;;;;;6.90;3.73;;;10.50;85.60;;;;;;5068092;29;20389;-31
2021/12/02 10:39:39;;;;;;;7.73;4.07;;;10.60;84.00;;;;;;5068200;29;20057;-30
2021/12/02 10:42:11;;;;;;;7.53;4.43;;;10.60;84.90;;;;;;5067060;29;20052;-33
2021/12/02 10:44:43;;;;;;;6.13;3.47;;;10.60;83.10;;;;;;5067888;29;20048;-31
2021/12/02 10:47:14;;;;;;;8.60;4.37;;;10.60;83.60;;;;;;5051726;29;20067;-33
2021/12/02 10:50:12;;;;;;;7.23;3.70;;;10.70;84.00;;;;;;5067420;29;20049;-31
2021/12/02 10:52:43;;;;;;;9.60;6.13;;;10.70;83.90;;;;;;5066295;29;20478;-33
2021/12/02 10:55:16;;;;;;;5.93;3.33;;;10.60;83.10;;;;;;5062868;29;20087;-30
2021/12/02 10:57:52;;;;;;;5.72;3.47;;;11.00;84.20;;;;;;5066282;29;20052;-33
2021/12/02 11:00:27;;;;;;;4.73;2.50;;;11.50;82.50;;;;;;5125078;28;20575;-33
2021/12/02 11:02:59;;;;;;;5.80;2.30;;;11.90;82.30;;;;;;5145427;28;20155;-32
2021/12/02 11:05:33;;;;;;;4.60;2.47;;;12.20;80.30;;;;;;5145140;28;20055;-31
2021/12/02 11:08:06;;;;;;;;;;;12.50;79.70;;;;;;5145914;28;20124;-33
2021/12/02 11:10:41;;;;;;;;;;;12.70;80.00;;;;;;5145977;28;19926;-32
2021/12/02 11:13:23;;;;;;;5.77;3.07;;;12.80;78.30;;;;;;5167199;28;20394;-34
2021/12/02 11:15:54;;;;;;;5.43;2.50;;;13.00;79.10;;;;;;5188134;28;20053;-33
2021/12/02 11:18:28;;;;;;;4.40;2.40;;;13.10;80.50;;;;;;5186731;28;20050;-30
2021/12/02 11:21:15;;;;;;;;;;;13.10;79.20;;;;;;5187215;28;20049;-30
2021/12/02 11:24:08;;;;;;;3.10;2.27;;;13.20;79.20;;;;;;5187326;28;19968;-33
2021/12/02 11:26:48;;;;;;;4.63;2.87;;;13.20;78.90;;;;;;5165426;28;20061;-33
2021/12/02 11:29:22;;;;;;;4.43;2.20;;;13.30;78.90;;;;;;5149531;28;20508;-32
2021/12/02 11:31:55;;;;;;;4.27;2.50;;;13.30;78.60;;;;;;5148965;28;20157;-31
2021/12/02 11:34:32;;;;;;;4.63;2.73;;;13.40;78.50;;;;;;5164823;28;20065;-31
2021/12/02 11:37:06;;;;;;;4.72;2.45;;;13.50;79.70;;;;;;5149096;28;20046;-31
2021/12/02 11:39:40;;;;;;;6.70;4.17;;;13.50;78.20;;;;;;5149112;28;20520;-32
2021/12/02 11:42:13;;;;;;;5.03;3.03;;;13.50;78.20;;;;;;5149372;28;20086;-30
2021/12/02 11:44:46;;;;;;;6.90;3.33;;;13.60;78.20;;;;;;5148880;28;20104;-31
2021/12/02 11:47:39;;;;;;;6.37;3.87;;;13.60;78.30;;;;;;5149802;28;20054;-31
2021/12/02 11:50:13;;;;;;;6.03;3.23;;;13.70;78.30;;;;;;5149064;28;20065;-31
2021/12/02 11:52:44;;;;;;;6.00;2.97;;;13.70;78.50;;;;;;5148678;28;20055;-31
2021/12/02 11:55:16;;;;;;;4.37;2.40;;;13.60;77.80;;;;;;5148829;28;20162;-31
2021/12/02 11:57:48;;;;;;;6.32;2.83;;;13.60;78.80;;;;;;5148679;28;20109;-31
2021/12/02 12:00:21;;;;;;;6.93;3.93;;;13.60;78.60;;;;;;5148511;28;20074;-31
2021/12/02 12:03:23;;;;;;;11.57;6.65;;;13.50;77.10;;;;;;5166762;28;20050;-31
2021/12/02 12:06:25;;;;;;;7.47;4.50;;;13.60;78.40;;;;;;5186946;28;20181;-31
2021/12/02 12:09:18;;;;;;;7.97;4.97;;;13.60;77.90;;;;;;5186063;28;20050;-31
2021/12/02 12:12:13;;;;;;;6.60;4.10;;;13.70;77.60;;;;;;5185474;28;20037;-31
2021/12/02 12:14:48;;;;;;;3.73;2.67;;;13.70;77.60;;;;;;5186977;28;20050;-31
2021/12/02 12:17:20;;;;;;;7.03;4.80;;;13.70;77.20;;;;;;5169633;28;20455;-31
2021/12/02 12:19:51;;;;;;;5.80;3.50;;;13.80;78.00;;;;;;5186220;28;20050;-31
2021/12/02 12:22:29;;;;;;;6.40;3.80;;;13.80;78.00;;;;;;5185515;28;20052;-31
2021/12/02 12:25:03;;;;;;;9.43;5.37;;;13.80;77.60;;;;;;5185171;28;20046;-31
2021/12/02 12:27:36;;;;;;;4.70;3.07;;;13.80;78.10;;;;;;5186790;28;20038;-31
2021/12/02 12:30:09;;;;;;;4.28;2.42;;;13.80;77.30;;;;;;5169378;28;20046;-32
2021/12/02 12:38:28;;;;;;;4.27;2.60;;;13.80;77.50;;;;;;5186502;28;20491;-31
2021/12/02 12:41:18;;;;;;;4.28;2.95;;;13.80;78.50;;;;;;5186754;28;20050;-31
2021/12/02 12:43:51;;;;;;;5.90;3.90;;;13.80;77.60;;;;;;5186782;28;20062;-31
2021/12/02 12:46:33;;;;;;;5.47;3.08;;;13.80;77.90;;;;;;5185725;28;20048;-31
2021/12/02 12:49:17;;;;;;;5.10;3.40;;;13.80;77.70;;;;;;5170570;28;20046;-31
2021/12/02 12:51:50;;;;;;;4.70;2.60;;;13.80;77.80;;;;;;5185277;28;20041;-31
2021/12/02 12:54:22;;;;;;;8.00;5.13;;;13.80;77.30;;;;;;5185294;28;20120;-31
2021/12/02 12:57:05;;;;;;;12.32;6.68;;;13.90;77.30;;;;;;5186076;28;20488;-31
2021/12/02 12:59:55;;;;;;;5.00;2.72;;;13.80;77.00;;;;;;5186450;28;20050;-30
2021/12/02 13:02:26;;;;;;;14.40;9.03;;;13.80;77.30;;;;;;5186387;28;20407;-33
2021/12/02 13:04:58;;;;;;;18.23;8.70;;;13.80;77.80;;;;;;5169334;28;20050;-31
2021/12/02 13:07:37;;;;;;;5.80;3.00;;;13.80;78.10;;;;;;5186493;28;20081;-31
2021/12/02 13:10:12;;;;;;;11.57;6.17;;;13.90;77.90;;;;;;5185842;28;20056;-31
2021/12/02 13:12:52;;;;;;;18.27;8.80;;;13.90;77.40;;;;;;5185385;28;20068;-31
2021/12/02 13:15:27;;;;;;;9.50;5.70;;;13.90;77.20;;;;;;5185723;28;20092;-31
2021/12/02 13:18:02;;;;;;;13.57;6.63;;;13.90;76.90;;;;;;5169354;28;20569;-31
2021/12/02 13:20:42;;;;;;;6.07;3.47;;;14.00;77.50;;;;;;5186448;28;20050;-31
2021/12/02 13:23:13;;;;;;;24.87;10.93;;;14.10;77.50;;;;;;5186716;28;20045;-31
2021/12/02 13:25:54;;;;;;;13.33;6.47;;;14.10;77.30;;;;;;5186756;28;20042;-31
2021/12/02 13:28:40;;;;;;;6.73;3.77;;;14.10;77.20;;;;;;5185692;28;20584;-31
2021/12/02 13:31:13;;;;;;;11.03;7.97;;;14.10;77.40;;;;;;5186602;28;20472;-31
2021/12/02 13:33:53;;;;;;;5.03;3.30;;;14.10;77.20;;;;;;5169136;28;20080;-31
2021/12/02 13:37:01;;;;;;;12.30;6.50;;;14.10;77.40;;;;;;5186959;28;20455;-31
2021/12/02 13:39:33;;;;;;;33.37;21.63;;;14.10;77.10;;;;;;5186259;28;20409;-31
2021/12/02 13:42:15;;;;;;;10.37;5.73;;;14.10;77.30;;;;;;5185037;28;20076;-31
2021/12/02 13:44:52;;;;;;;8.57;4.57;;;14.10;77.40;;;;;;5186229;28;20441;-31
2021/12/02 13:47:29;;;;;;;11.53;5.47;;;14.10;77.40;;;;;;5185602;28;20078;-32